Time;durP1;ratioP1;P1;durP2;ratioP2;P2;SDS_P1;SDS_P2;PMS_P1;PMS_P2;Temp;Humidity;BMP_temperature;BMP_pressure;BME280_temperature;BME280_humidity;BME280_pressure;Samples;Min_cycle;Max_cycle;Signal;HPM_P1;HPM_P2
2022/01/04 00:01:57;;;;;;;4.57;2.27;;;10.50;99.90;;;;;;4983535;28;20202;-71
2022/01/04 00:04:23;;;;;;;4.60;2.13;;;10.50;99.90;;;;;;4990555;28;20202;-71
2022/01/04 00:06:48;;;;;;;4.70;2.07;;;10.60;99.90;;;;;;5022805;28;20469;-71
2022/01/04 00:09:14;;;;;;;4.03;2.63;;;10.60;99.90;;;;;;4969847;28;20183;-71
2022/01/04 00:14:09;;;;;;;3.83;2.20;;;10.60;99.90;;;;;;4987324;28;20191;-71
2022/01/04 00:16:35;;;;;;;4.40;2.50;;;10.70;99.90;;;;;;4983056;28;20424;-70
2022/01/04 00:19:01;;;;;;;4.00;2.50;;;10.70;99.90;;;;;;5039414;28;20430;-71
2022/01/04 00:21:26;;;;;;;5.07;2.00;;;10.70;99.90;;;;;;4987336;28;20724;-71
2022/01/04 00:23:52;;;;;;;4.03;2.10;;;10.70;99.90;;;;;;4987200;28;20280;-71
2022/01/04 00:26:17;;;;;;;2.70;1.30;;;10.70;99.90;;;;;;4968331;28;20300;-71
2022/01/04 00:28:43;;;;;;;3.10;2.10;;;10.70;99.90;;;;;;4969742;28;20168;-71
2022/01/04 00:31:08;;;;;;;2.60;1.80;;;10.80;99.90;;;;;;4975757;28;20522;-71
2022/01/04 00:33:34;;;;;;;4.60;2.47;;;10.80;99.90;;;;;;5003409;28;20211;-70
2022/01/04 00:35:59;;;;;;;4.33;2.17;;;10.80;99.90;;;;;;5030029;28;20751;-70
2022/01/04 00:38:25;;;;;;;6.53;2.77;;;10.80;99.90;;;;;;5029028;28;20206;-71
2022/01/04 00:40:50;;;;;;;3.43;1.80;;;10.80;99.90;;;;;;5090512;28;20506;-71
2022/01/04 00:43:16;;;;;;;2.67;1.80;;;10.80;99.90;;;;;;5091083;28;20195;-71
2022/01/04 00:45:41;;;;;;;9.17;2.00;;;10.90;99.90;;;;;;4987799;28;20206;-70
2022/01/04 00:50:35;;;;;;;4.10;1.80;;;10.90;99.90;;;;;;4970143;28;20618;-71
2022/01/04 00:53:02;;;;;;;2.40;2.10;;;10.90;99.90;;;;;;4967311;28;20436;-70
2022/01/04 00:55:28;;;;;;;2.43;1.93;;;10.90;99.90;;;;;;4969081;28;20439;-70
2022/01/04 00:57:54;;;;;;;3.40;2.10;;;10.90;99.90;;;;;;4968585;28;20442;-71
2022/01/04 01:00:20;;;;;;;2.87;2.13;;;10.90;99.90;;;;;;5019563;28;20541;-71
2022/01/04 01:02:47;;;;;;;4.40;2.00;;;10.90;99.90;;;;;;5012510;28;20426;-70
2022/01/04 01:05:14;;;;;;;2.57;2.37;;;10.90;99.90;;;;;;4988995;28;20425;-71
2022/01/04 01:07:40;;;;;;;4.33;2.17;;;10.90;99.90;;;;;;5042324;28;20427;-71
2022/01/04 01:10:43;;;;;;;3.23;1.80;;;10.90;99.90;;;;;;4985241;28;20430;-71
2022/01/04 01:13:10;;;;;;;1.83;1.67;;;10.90;99.90;;;;;;4982443;28;20967;-71
2022/01/04 01:15:37;;;;;;;3.93;1.90;;;10.90;99.90;;;;;;5013732;28;20904;-70
2022/01/04 01:18:03;;;;;;;4.90;2.40;;;10.90;99.90;;;;;;5014229;28;20860;-70
2022/01/04 01:20:29;;;;;;;1.97;1.80;;;10.90;99.90;;;;;;4986132;28;20475;-71
2022/01/04 01:22:54;;;;;;;2.67;1.90;;;10.90;99.90;;;;;;5009704;28;20552;-71
2022/01/04 01:25:21;;;;;;;4.87;2.30;;;10.90;99.90;;;;;;5022813;28;20284;-71
2022/01/04 01:27:46;;;;;;;4.17;2.00;;;11.00;99.90;;;;;;4973846;28;20194;-71
2022/01/04 01:30:12;;;;;;;4.03;2.20;;;11.00;99.90;;;;;;4987880;28;20418;-71
2022/01/04 01:32:38;;;;;;;4.37;1.80;;;11.00;99.90;;;;;;4978307;28;20176;-70
2022/01/04 01:35:04;;;;;;;4.30;2.20;;;10.90;99.90;;;;;;5013865;28;20444;-71
2022/01/04 01:37:30;;;;;;;2.80;2.07;;;10.90;99.90;;;;;;4994999;28;20214;-70
2022/01/04 01:39:55;;;;;;;2.07;1.83;;;10.90;99.90;;;;;;4987541;28;20989;-71
2022/01/04 01:42:21;;;;;;;2.40;1.77;;;10.90;99.90;;;;;;4980882;28;20662;-70
2022/01/04 01:44:46;;;;;;;6.13;2.23;;;10.90;99.90;;;;;;4967458;28;20223;-70
2022/01/04 01:47:12;;;;;;;3.33;2.40;;;11.00;99.90;;;;;;5005707;28;20230;-70
2022/01/04 01:49:38;;;;;;;4.50;2.43;;;11.00;99.90;;;;;;4988802;28;20269;-69
2022/01/04 01:52:04;;;;;;;2.50;2.23;;;11.00;99.90;;;;;;4968779;28;20214;-70
2022/01/04 01:54:29;;;;;;;2.97;2.10;;;11.00;99.90;;;;;;4977236;28;20293;-70
2022/01/04 01:56:55;;;;;;;3.27;2.30;;;11.00;99.90;;;;;;5040789;28;20822;-70
2022/01/04 01:59:20;;;;;;;4.67;2.13;;;11.00;99.90;;;;;;4985955;28;20211;-71
2022/01/04 02:01:46;;;;;;;3.53;1.90;;;11.10;99.90;;;;;;4978980;28;20287;-71
2022/01/04 02:04:12;;;;;;;2.30;2.10;;;11.00;99.90;;;;;;5022469;28;20204;-70
2022/01/04 02:06:37;;;;;;;5.63;2.33;;;11.00;99.90;;;;;;5029591;28;20199;-69
2022/01/04 02:09:04;;;;;;;6.10;2.40;;;11.00;99.90;;;;;;4983995;28;20625;-70
2022/01/04 02:11:31;;;;;;;2.27;1.97;;;11.00;99.90;;;;;;4985218;28;20258;-71
2022/01/04 02:14:00;;;;;;;3.90;2.50;;;11.00;99.90;;;;;;4970084;28;20524;-71
2022/01/04 02:16:27;;;;;;;4.90;2.30;;;10.90;99.90;;;;;;4967635;28;20437;-71
2022/01/04 02:19:03;;;;;;;2.80;2.10;;;10.90;99.90;;;;;;4974066;28;20435;-70
2022/01/04 02:21:30;;;;;;;5.00;2.50;;;10.90;99.90;;;;;;4968922;28;20805;-70
2022/01/04 02:23:55;;;;;;;4.60;2.27;;;10.90;99.90;;;;;;5027557;28;20535;-71
2022/01/04 02:26:21;;;;;;;5.80;2.20;;;10.80;99.90;;;;;;5064467;28;20465;-71
2022/01/04 02:28:48;;;;;;;2.67;2.10;;;10.60;99.90;;;;;;4981621;28;20625;-71
2022/01/04 02:31:14;;;;;;;3.30;2.40;;;10.80;99.90;;;;;;4984458;28;20415;-70
2022/01/04 02:33:39;;;;;;;3.13;2.60;;;10.80;99.90;;;;;;4982411;28;20494;-71
2022/01/04 02:36:05;;;;;;;3.77;2.70;;;10.70;99.90;;;;;;4993365;28;20603;-69
2022/01/04 02:38:30;;;;;;;2.90;2.40;;;11.10;99.90;;;;;;5041691;28;20175;-71
2022/01/04 02:40:56;;;;;;;3.50;2.67;;;10.70;99.90;;;;;;5016037;28;20191;-71
2022/01/04 02:43:21;;;;;;;6.57;3.10;;;10.80;99.90;;;;;;5023687;28;20207;-71
2022/01/04 02:45:47;;;;;;;3.23;2.40;;;10.70;99.90;;;;;;5041649;28;20204;-71
2022/01/04 02:48:12;;;;;;;3.80;2.40;;;10.70;99.90;;;;;;4993336;28;20179;-70
2022/01/04 02:50:38;;;;;;;6.80;2.70;;;10.70;99.90;;;;;;4973586;28;20188;-70
2022/01/04 02:53:04;;;;;;;6.10;2.60;;;10.60;99.90;;;;;;4967300;28;20299;-70
2022/01/04 02:55:29;;;;;;;2.60;2.40;;;10.60;99.90;;;;;;4977058;28;20503;-71
2022/01/04 02:57:55;;;;;;;4.67;2.70;;;10.60;99.90;;;;;;4967122;28;20187;-71
2022/01/04 03:00:20;;;;;;;4.70;2.70;;;10.60;99.90;;;;;;4967143;28;20187;-71
2022/01/04 03:02:46;;;;;;;5.50;2.67;;;10.60;99.90;;;;;;4971417;28;20180;-71
2022/01/04 03:05:12;;;;;;;5.20;2.40;;;10.70;99.90;;;;;;5049395;28;20267;-71
2022/01/04 03:07:37;;;;;;;4.87;2.57;;;10.60;99.90;;;;;;5007073;28;20301;-71
2022/01/04 03:10:05;;;;;;;5.13;2.47;;;10.60;99.90;;;;;;4966427;28;20249;-71
2022/01/04 03:12:30;;;;;;;4.10;2.70;;;10.60;99.90;;;;;;4968681;28;20226;-70
2022/01/04 03:14:56;;;;;;;6.90;2.50;;;10.60;99.90;;;;;;4979076;28;20487;-71
2022/01/04 03:17:21;;;;;;;3.70;2.47;;;10.60;99.90;;;;;;5063772;28;20195;-71
2022/01/04 03:19:47;;;;;;;4.50;2.63;;;10.60;99.90;;;;;;5010602;28;20211;-72
2022/01/04 03:22:12;;;;;;;2.70;2.47;;;10.60;99.90;;;;;;4978074;28;20198;-71
2022/01/04 03:24:38;;;;;;;8.13;2.77;;;10.60;99.90;;;;;;4966824;28;20547;-71
2022/01/04 03:27:04;;;;;;;6.40;2.97;;;10.60;99.90;;;;;;5003617;28;20219;-71
2022/01/04 03:29:29;;;;;;;10.90;2.53;;;10.60;99.90;;;;;;5026137;28;20172;-71
2022/01/04 03:31:57;;;;;;;3.40;2.60;;;10.60;99.90;;;;;;4966299;28;20176;-71
2022/01/04 03:34:23;;;;;;;2.90;2.40;;;10.60;99.90;;;;;;4975196;28;20245;-71
2022/01/04 03:36:49;;;;;;;7.33;2.27;;;10.50;99.90;;;;;;4967849;28;20439;-71
2022/01/04 03:39:15;;;;;;;9.33;2.50;;;10.60;99.90;;;;;;4969211;28;20435;-71
2022/01/04 03:41:43;;;;;;;4.03;2.50;;;10.60;99.90;;;;;;4978061;28;20187;-71
2022/01/04 03:44:18;;;;;;;2.80;2.50;;;10.60;99.90;;;;;;4972488;28;20660;-70
2022/01/04 03:46:44;;;;;;;2.60;2.40;;;10.50;99.90;;;;;;4964364;28;20497;-71
2022/01/04 03:49:10;;;;;;;6.63;2.90;;;10.60;99.90;;;;;;4966947;28;20436;-71
2022/01/04 03:51:35;;;;;;;5.23;2.73;;;10.60;99.90;;;;;;5037320;28;20483;-71
2022/01/04 03:54:02;;;;;;;5.83;2.60;;;10.60;99.90;;;;;;4991754;28;20200;-71
2022/01/04 03:56:28;;;;;;;6.97;2.60;;;10.50;99.90;;;;;;5031400;28;20187;-71
2022/01/04 03:58:53;;;;;;;6.77;2.77;;;10.50;99.90;;;;;;5003519;28;20461;-70
2022/01/04 04:01:19;;;;;;;4.67;2.60;;;10.50;99.90;;;;;;4984803;28;20704;-70
2022/01/04 04:03:45;;;;;;;3.43;2.20;;;10.60;99.90;;;;;;4979197;28;20202;-70
2022/01/04 04:06:11;;;;;;;3.30;2.30;;;10.50;99.90;;;;;;5038300;28;20199;-71
2022/01/04 04:08:37;;;;;;;2.93;2.40;;;10.50;99.90;;;;;;4989135;28;20179;-70
2022/01/04 04:11:03;;;;;;;4.67;2.47;;;10.50;99.90;;;;;;4983498;28;20171;-71
2022/01/04 04:13:28;;;;;;;2.80;2.13;;;10.40;99.90;;;;;;4991968;28;20680;-70
2022/01/04 04:15:54;;;;;;;5.07;2.40;;;10.70;99.90;;;;;;5008829;28;20187;-70
2022/01/04 04:18:19;;;;;;;6.97;2.30;;;10.50;99.90;;;;;;4964972;28;20703;-70
2022/01/04 04:20:45;;;;;;;3.30;2.10;;;10.50;99.90;;;;;;4965810;28;20184;-71
2022/01/04 04:23:11;;;;;;;2.57;2.17;;;10.50;99.90;;;;;;4966067;28;20203;-71
2022/01/04 04:25:37;;;;;;;2.80;2.30;;;10.70;99.90;;;;;;4972230;28;20211;-71
2022/01/04 04:28:03;;;;;;;4.13;2.87;;;10.50;99.90;;;;;;4979531;28;20432;-71
2022/01/04 04:30:28;;;;;;;2.93;2.60;;;10.50;99.90;;;;;;4967497;28;20703;-71
2022/01/04 04:32:54;;;;;;;2.60;2.17;;;10.50;99.90;;;;;;4972980;28;20200;-71
2022/01/04 04:35:20;;;;;;;7.53;2.40;;;10.50;99.90;;;;;;5001191;28;20282;-72
2022/01/04 04:37:45;;;;;;;2.60;2.40;;;10.50;99.90;;;;;;5025631;28;20309;-71
2022/01/04 04:40:12;;;;;;;3.90;2.73;;;10.50;99.90;;;;;;4977646;28;20218;-71
2022/01/04 04:42:37;;;;;;;4.53;2.33;;;10.50;99.90;;;;;;4966225;28;20188;-70
2022/01/04 04:45:04;;;;;;;5.73;2.70;;;10.60;99.90;;;;;;4975543;28;20435;-70
2022/01/04 04:47:30;;;;;;;3.60;2.73;;;10.30;99.90;;;;;;4965567;28;20210;-71
2022/01/04 04:49:55;;;;;;;3.13;2.43;;;10.50;99.90;;;;;;4964350;28;20431;-71
2022/01/04 04:52:21;;;;;;;3.77;2.73;;;10.50;99.90;;;;;;4968998;28;20171;-71
2022/01/04 04:54:48;;;;;;;6.03;2.40;;;10.50;99.90;;;;;;4983977;28;20223;-71
2022/01/04 04:57:14;;;;;;;4.30;2.60;;;10.50;99.90;;;;;;5024735;28;20183;-71
2022/01/04 04:59:40;;;;;;;6.73;2.37;;;10.50;99.90;;;;;;4988598;28;20410;-71
2022/01/04 05:02:07;;;;;;;2.83;2.30;;;10.50;99.90;;;;;;4982724;28;20458;-71
2022/01/04 05:04:33;;;;;;;3.83;2.43;;;10.50;99.90;;;;;;4997432;28;20589;-71
2022/01/04 05:06:59;;;;;;;3.20;2.23;;;10.50;99.90;;;;;;4992670;28;21055;-71
2022/01/04 05:09:24;;;;;;;3.03;2.40;;;10.50;99.90;;;;;;4968011;28;20556;-70
2022/01/04 05:11:50;;;;;;;4.73;2.60;;;10.50;99.90;;;;;;4975930;28;20195;-70
2022/01/04 05:14:16;;;;;;;2.90;2.60;;;10.50;99.90;;;;;;4975692;28;20192;-71
2022/01/04 05:16:42;;;;;;;3.80;2.63;;;10.40;99.90;;;;;;5062989;28;20351;-72
2022/01/04 05:19:07;;;;;;;4.47;2.30;;;10.50;99.90;;;;;;5065439;28;20225;-70
2022/01/04 05:21:33;;;;;;;4.97;2.80;;;10.50;99.90;;;;;;5011562;28;20181;-70
2022/01/04 05:23:58;;;;;;;5.67;2.90;;;10.60;99.90;;;;;;4969213;28;20203;-70
2022/01/04 05:26:24;;;;;;;5.40;3.17;;;10.50;99.90;;;;;;4976411;28;20554;-71
2022/01/04 05:28:49;;;;;;;3.90;2.47;;;10.50;99.90;;;;;;5029179;28;20175;-71
2022/01/04 05:31:15;;;;;;;4.10;2.67;;;10.60;99.90;;;;;;4979297;28;20541;-70
2022/01/04 05:33:41;;;;;;;5.30;2.93;;;10.60;99.90;;;;;;4980242;28;20187;-71
2022/01/04 05:36:07;;;;;;;2.57;2.30;;;10.60;99.90;;;;;;4980146;28;20201;-71
2022/01/04 05:38:32;;;;;;;4.60;2.67;;;10.80;99.90;;;;;;4983966;28;20779;-70
2022/01/04 05:40:58;;;;;;;9.93;2.80;;;10.60;99.90;;;;;;4967595;28;20174;-70
2022/01/04 05:43:24;;;;;;;3.03;2.73;;;10.60;99.90;;;;;;4981676;28;20293;-70
2022/01/04 05:45:49;;;;;;;3.50;2.60;;;10.60;99.90;;;;;;5045866;28;20252;-70
2022/01/04 05:48:18;;;;;;;5.23;3.47;;;10.60;99.90;;;;;;5085819;28;20233;-71
2022/01/04 05:50:43;;;;;;;3.73;3.00;;;10.60;99.90;;;;;;4987215;28;20183;-70
2022/01/04 05:53:09;;;;;;;3.00;2.70;;;10.70;99.90;;;;;;4985661;28;20439;-70
2022/01/04 05:55:34;;;;;;;4.13;2.60;;;10.70;99.90;;;;;;4977890;28;20187;-70
2022/01/04 05:58:00;;;;;;;4.43;3.00;;;10.70;99.90;;;;;;4987433;28;20304;-71
2022/01/04 06:00:26;;;;;;;4.43;2.43;;;10.70;99.90;;;;;;4986996;28;20332;-70
2022/01/04 06:02:52;;;;;;;8.40;2.30;;;10.70;99.90;;;;;;4989981;28;20261;-70
2022/01/04 06:05:18;;;;;;;2.73;2.00;;;10.70;99.90;;;;;;5024208;28;20179;-70
2022/01/04 06:07:43;;;;;;;2.33;2.13;;;10.70;99.90;;;;;;4966196;28;20434;-70
2022/01/04 06:10:10;;;;;;;3.83;2.10;;;10.70;99.90;;;;;;4966062;28;20626;-70
2022/01/04 06:15:07;;;;;;;2.07;1.83;;;10.80;99.90;;;;;;4972777;28;20932;-71
2022/01/04 06:17:36;;;;;;;6.90;1.90;;;10.80;99.90;;;;;;4985791;28;20418;-71
2022/01/04 06:20:05;;;;;;;2.00;1.80;;;10.80;99.90;;;;;;4974361;28;20435;-70
2022/01/04 06:22:30;;;;;;;2.50;1.80;;;10.90;99.90;;;;;;4967654;28;20526;-71
2022/01/04 06:24:57;;;;;;;5.07;1.70;;;10.90;99.90;;;;;;5039211;28;20560;-71
2022/01/04 06:27:23;;;;;;;30.17;2.73;;;10.80;99.90;;;;;;5053060;28;20305;-71
2022/01/04 06:29:49;;;;;;;2.10;1.90;;;10.90;99.90;;;;;;4990489;28;20850;-71
2022/01/04 06:32:15;;;;;;;2.70;1.77;;;10.70;99.90;;;;;;4986589;28;20423;-70
2022/01/04 06:34:43;;;;;;;2.77;1.90;;;10.80;99.90;;;;;;5000333;28;20948;-71
2022/01/04 06:37:12;;;;;;;2.03;1.83;;;10.90;99.90;;;;;;5018812;28;20908;-70
2022/01/04 06:39:38;;;;;;;2.67;2.07;;;10.80;99.90;;;;;;4995257;28;20451;-71
2022/01/04 06:42:04;;;;;;;2.90;1.70;;;10.90;99.90;;;;;;4973237;28;20468;-70
2022/01/04 06:44:31;;;;;;;3.50;1.93;;;10.90;99.90;;;;;;5026279;28;20199;-70
2022/01/04 06:46:57;;;;;;;6.13;2.00;;;10.90;99.90;;;;;;4993374;28;20557;-71
2022/01/04 06:49:23;;;;;;;2.53;1.87;;;10.90;99.90;;;;;;4971020;28;20513;-73
2022/01/04 06:51:49;;;;;;;2.20;2.00;;;10.90;99.90;;;;;;4968571;28;20490;-72
2022/01/04 06:54:16;;;;;;;2.43;1.60;;;11.00;99.90;;;;;;4973993;28;20879;-71
2022/01/04 06:56:43;;;;;;;1.70;1.53;;;10.90;99.90;;;;;;4986239;28;20459;-71
2022/01/04 06:59:09;;;;;;;3.63;1.90;;;11.00;99.90;;;;;;4985540;28;20422;-71
2022/01/04 07:01:35;;;;;;;3.93;2.03;;;11.00;99.90;;;;;;4968436;28;20449;-72
2022/01/04 07:04:01;;;;;;;1.93;1.73;;;11.00;99.90;;;;;;5037556;28;20966;-72
2022/01/04 07:06:27;;;;;;;5.40;2.00;;;11.00;99.90;;;;;;4990058;28;20524;-71
2022/01/04 07:08:53;;;;;;;5.30;2.27;;;10.90;99.90;;;;;;4970627;28;20452;-72
2022/01/04 07:11:18;;;;;;;1.97;1.87;;;11.00;99.90;;;;;;4975969;28;20222;-71
2022/01/04 07:13:44;;;;;;;2.07;1.87;;;11.00;99.90;;;;;;4967582;28;20696;-71
2022/01/04 07:16:09;;;;;;;2.00;1.90;;;11.10;99.90;;;;;;5020554;28;20764;-71
2022/01/04 07:18:35;;;;;;;3.43;2.10;;;11.10;99.90;;;;;;4976423;28;20195;-73
2022/01/04 16:13:33;;;;;;;4.10;3.10;;;6.20;99.90;;;;;;5062166;28;20958;-71
2022/01/04 16:16:57;;;;;;;7.57;2.80;;;6.30;99.90;;;;;;5039286;28;20416;-72
2022/01/04 16:21:38;;;;;;;4.93;3.00;;;6.60;99.90;;;;;;5031183;28;20498;-72
2022/01/04 16:24:06;;;;;;;4.30;3.10;;;6.70;99.90;;;;;;5049768;28;20615;-71
2022/01/04 16:26:33;;;;;;;10.30;3.10;;;6.80;99.90;;;;;;5039643;28;20547;-72
2022/01/04 16:29:06;;;;;;;12.20;4.03;;;6.80;99.90;;;;;;5036157;28;20412;-72
2022/01/04 16:31:32;;;;;;;5.10;3.53;;;6.90;99.90;;;;;;5032343;28;20972;-71
2022/01/04 16:33:58;;;;;;;5.13;3.50;;;7.00;99.90;;;;;;5039169;28;20978;-72
2022/01/04 16:36:26;;;;;;;7.32;4.30;;;7.00;99.90;;;;;;5041025;28;20515;-72
2022/01/04 16:38:52;;;;;;;6.87;4.50;;;7.10;99.90;;;;;;5027596;28;20174;-72
2022/01/04 16:41:17;;;;;;;4.30;2.83;;;7.10;99.90;;;;;;5051885;28;20404;-73
2022/01/04 16:43:44;;;;;;;8.97;3.77;;;7.10;99.90;;;;;;5058249;28;20291;-72
2022/01/04 16:46:09;;;;;;;12.37;6.60;;;7.00;99.90;;;;;;5041524;28;20227;-72
2022/01/04 16:48:35;;;;;;;6.97;4.67;;;7.10;99.90;;;;;;5045612;28;20772;-72
2022/01/04 16:51:00;;;;;;;5.40;3.80;;;7.10;99.90;;;;;;5043632;28;20248;-72
2022/01/04 16:53:26;;;;;;;12.33;4.20;;;7.10;99.90;;;;;;5045339;28;20228;-72
2022/01/04 16:55:51;;;;;;;44.60;22.23;;;6.90;99.90;;;;;;5038271;28;20248;-72
2022/01/04 16:58:17;;;;;;;8.37;4.10;;;7.00;99.90;;;;;;5040031;28;20197;-73
2022/01/04 17:00:42;;;;;;;4.50;3.30;;;6.90;99.90;;;;;;5044141;28;20189;-73
2022/01/04 17:03:08;;;;;;;3.97;2.70;;;6.90;99.90;;;;;;5038597;28;20208;-72
2022/01/04 17:05:38;;;;;;;2.90;2.20;;;6.90;99.90;;;;;;5042594;28;20208;-72
2022/01/04 17:08:05;;;;;;;6.67;2.20;;;6.90;99.90;;;;;;5033486;28;20177;-72
2022/01/04 17:10:32;;;;;;;5.07;2.57;;;6.80;99.90;;;;;;5037541;28;21000;-72
2022/01/04 17:15:42;;;;;;;5.23;2.60;;;6.80;99.90;;;;;;5045338;28;20459;-72
2022/01/04 17:18:08;;;;;;;4.53;3.20;;;6.80;99.90;;;;;;5045132;28;20435;-72
2022/01/04 17:20:33;;;;;;;2.53;2.20;;;6.90;99.90;;;;;;5042621;28;20241;-72
2022/01/04 17:22:59;;;;;;;3.80;2.80;;;6.90;99.90;;;;;;5041971;28;20224;-72
2022/01/04 17:25:25;;;;;;;3.30;2.67;;;6.80;99.90;;;;;;5031295;28;20166;-72
2022/01/04 17:27:51;;;;;;;4.50;2.67;;;6.70;99.90;;;;;;5031570;28;20204;-72
2022/01/04 17:30:19;;;;;;;3.10;2.47;;;6.60;99.90;;;;;;5029866;28;20456;-72
2022/01/04 17:32:44;;;;;;;3.07;2.77;;;6.70;99.90;;;;;;5011844;28;20671;-71
2022/01/04 17:35:10;;;;;;;7.10;4.40;;;6.70;99.90;;;;;;5034822;28;20441;-72
2022/01/04 17:37:37;;;;;;;4.90;2.70;;;6.70;99.90;;;;;;5036380;28;20214;-72
2022/01/04 17:40:05;;;;;;;3.60;2.70;;;6.80;99.90;;;;;;5029065;28;20850;-71
2022/01/04 17:42:30;;;;;;;2.50;2.27;;;6.70;99.90;;;;;;5010115;28;20985;-72
2022/01/04 17:44:56;;;;;;;6.50;4.40;;;6.70;99.90;;;;;;5011487;28;20433;-72
2022/01/04 17:47:22;;;;;;;4.20;2.90;;;6.60;99.90;;;;;;5009997;28;20553;-72
2022/01/04 17:49:47;;;;;;;3.90;2.57;;;6.70;99.90;;;;;;5011385;28;20391;-72
2022/01/04 17:52:13;;;;;;;5.97;4.50;;;6.70;99.90;;;;;;5024459;28;20456;-73
2022/01/04 17:54:39;;;;;;;4.10;2.90;;;6.70;99.90;;;;;;5030968;28;20281;-72
2022/01/04 17:57:04;;;;;;;6.17;3.80;;;6.70;99.90;;;;;;5028180;28;20178;-72
2022/01/04 17:59:30;;;;;;;10.17;4.20;;;6.70;99.90;;;;;;5029805;28;20186;-72
2022/01/04 18:01:55;;;;;;;5.63;3.70;;;6.70;99.90;;;;;;5028750;28;20730;-72
2022/01/04 18:04:22;;;;;;;5.43;3.77;;;6.60;99.90;;;;;;5024630;28;20216;-70
2022/01/04 18:06:48;;;;;;;4.00;3.50;;;6.60;99.90;;;;;;5024007;28;20526;-72
2022/01/04 18:09:14;;;;;;;5.37;3.60;;;6.70;99.90;;;;;;5011951;28;20436;-71
2022/01/04 18:11:41;;;;;;;3.37;3.07;;;6.70;99.90;;;;;;5022514;28;20212;-72
2022/01/04 18:14:07;;;;;;;4.43;3.47;;;6.60;99.90;;;;;;5021077;28;20884;-71
2022/01/04 18:16:33;;;;;;;4.33;2.90;;;6.60;99.90;;;;;;5037824;28;20790;-71
2022/01/04 18:18:59;;;;;;;3.93;3.10;;;6.70;99.90;;;;;;5024865;28;20424;-71
2022/01/04 18:21:24;;;;;;;4.50;2.83;;;6.70;99.90;;;;;;5018549;28;20676;-71
2022/01/04 18:23:50;;;;;;;3.40;2.33;;;6.60;99.90;;;;;;5009739;28;20183;-71
2022/01/04 18:26:15;;;;;;;3.03;2.60;;;6.60;99.90;;;;;;5007964;28;20194;-71
2022/01/04 18:28:41;;;;;;;2.70;2.03;;;6.50;99.90;;;;;;5018070;28;20206;-71
2022/01/04 18:31:07;;;;;;;2.20;2.00;;;6.60;99.90;;;;;;5012207;28;20605;-71
2022/01/04 18:33:32;;;;;;;2.33;2.13;;;6.50;99.90;;;;;;5026461;28;20209;-71
2022/01/04 18:35:58;;;;;;;3.00;1.80;;;6.60;99.90;;;;;;5026151;28;20268;-71
2022/01/04 18:38:23;;;;;;;1.87;1.60;;;6.60;99.90;;;;;;5026686;28;20208;-71
2022/01/04 18:40:50;;;;;;;7.23;4.13;;;6.60;99.90;;;;;;5022927;28;20183;-71
2022/01/04 18:43:16;;;;;;;3.80;2.20;;;7.70;99.90;;;;;;5028665;28;20208;-70
2022/01/04 18:45:42;;;;;;;2.43;1.70;;;6.70;99.90;;;;;;5039477;28;20735;-71
2022/01/04 18:48:08;;;;;;;4.03;2.70;;;6.70;99.90;;;;;;5036200;28;20255;-71
2022/01/04 18:50:34;;;;;;;4.93;2.40;;;6.70;99.90;;;;;;5027349;28;20174;-70
2022/01/04 18:53:00;;;;;;;2.20;2.00;;;6.70;99.90;;;;;;5012692;28;20460;-71
2022/01/04 18:55:26;;;;;;;2.60;2.27;;;6.60;99.90;;;;;;5008632;28;20959;-71
2022/01/04 18:57:51;;;;;;;2.90;2.30;;;6.60;99.90;;;;;;5015686;28;20605;-71
2022/01/04 19:00:18;;;;;;;6.03;3.10;;;6.60;99.90;;;;;;5028094;28;20186;-72
2022/01/04 19:02:46;;;;;;;2.57;2.07;;;6.60;99.90;;;;;;5025493;28;20344;-71
2022/01/04 19:05:12;;;;;;;2.20;2.00;;;6.50;99.90;;;;;;5024948;28;20437;-71
2022/01/04 19:07:41;;;;;;;2.60;2.07;;;6.50;99.90;;;;;;5021170;28;20448;-71
2022/01/04 19:10:09;;;;;;;2.73;1.90;;;6.50;99.90;;;;;;5009167;28;20429;-71
2022/01/04 19:12:36;;;;;;;3.20;1.90;;;6.50;99.90;;;;;;5023753;28;20465;-71
2022/01/04 19:15:03;;;;;;;2.20;2.00;;;6.50;99.90;;;;;;5035432;28;20444;-72
2022/01/04 19:17:29;;;;;;;1.80;1.70;;;6.50;99.90;;;;;;5024995;28;20432;-71
2022/01/04 19:19:55;;;;;;;2.43;2.23;;;6.50;99.90;;;;;;5028218;28;20421;-71
2022/01/04 19:22:22;;;;;;;2.83;2.20;;;6.50;99.90;;;;;;5026103;28;20269;-71
2022/01/04 19:24:49;;;;;;;2.37;2.03;;;6.50;99.90;;;;;;5020607;28;20464;-71
2022/01/04 19:27:15;;;;;;;3.07;2.60;;;6.50;99.90;;;;;;5026489;28;20428;-71
2022/01/04 19:29:40;;;;;;;5.30;2.90;;;6.50;99.90;;;;;;5028973;28;20462;-71
2022/01/04 19:32:29;;;;;;;4.03;3.10;;;6.50;99.90;;;;;;5019239;28;20532;-71
2022/01/04 19:37:36;;;;;;;5.67;2.77;;;6.50;99.90;;;;;;5023187;28;20427;-71
2022/01/04 19:40:03;;;;;;;3.67;3.13;;;6.60;99.90;;;;;;5028466;28;20405;-72
2022/01/04 19:42:29;;;;;;;3.90;3.10;;;6.60;99.90;;;;;;5020361;28;20217;-72
2022/01/04 19:44:54;;;;;;;3.10;2.80;;;6.60;99.90;;;;;;5035320;28;20436;-72
2022/01/04 19:47:20;;;;;;;4.10;3.70;;;6.60;99.90;;;;;;5011168;28;20186;-72
2022/01/04 19:49:47;;;;;;;5.40;3.47;;;6.60;99.90;;;;;;5027795;28;20288;-71
2022/01/04 19:52:12;;;;;;;3.90;3.00;;;6.50;99.90;;;;;;5012749;28;20202;-72
2022/01/04 19:54:38;;;;;;;3.57;3.07;;;6.40;99.90;;;;;;5008936;28;20445;-71
2022/01/04 19:57:04;;;;;;;2.60;2.40;;;6.40;99.90;;;;;;5020150;28;20192;-71
2022/01/04 19:59:29;;;;;;;4.90;3.30;;;6.40;99.90;;;;;;5023978;28;20174;-72
2022/01/04 20:01:55;;;;;;;4.10;3.17;;;6.40;99.90;;;;;;5012192;28;20186;-72
2022/01/04 20:04:20;;;;;;;3.70;3.13;;;6.40;99.90;;;;;;5015920;28;20224;-72
2022/01/04 20:06:46;;;;;;;3.33;3.03;;;6.40;99.90;;;;;;5024840;28;20188;-70
2022/01/04 20:09:11;;;;;;;12.77;2.83;;;6.50;99.90;;;;;;5023546;28;20196;-72
2022/01/04 20:11:37;;;;;;;3.20;2.90;;;6.40;99.90;;;;;;5018064;28;20492;-71
2022/01/04 20:14:02;;;;;;;5.97;3.10;;;6.40;99.90;;;;;;5025067;28;21209;-72
2022/01/04 20:16:28;;;;;;;2.70;2.50;;;6.40;99.90;;;;;;5037243;28;20174;-71
2022/01/04 20:18:54;;;;;;;2.97;2.40;;;6.50;99.90;;;;;;5011065;28;20245;-72
2022/01/04 20:21:19;;;;;;;4.20;2.80;;;6.40;99.90;;;;;;5006122;28;20422;-71
2022/01/04 20:23:47;;;;;;;2.70;2.47;;;6.40;99.90;;;;;;5014676;28;20606;-72
2022/01/04 20:26:13;;;;;;;2.30;2.10;;;6.40;99.90;;;;;;5026283;28;20174;-72
2022/01/04 20:28:40;;;;;;;2.37;2.17;;;6.40;99.90;;;;;;5022802;28;20437;-72
2022/01/04 20:31:06;;;;;;;2.33;2.13;;;6.30;99.90;;;;;;5007391;28;20947;-72
2022/01/04 20:33:33;;;;;;;2.50;2.30;;;6.30;99.90;;;;;;5016325;28;20543;-71
2022/01/04 20:35:59;;;;;;;2.47;2.10;;;6.30;99.90;;;;;;5027658;28;20174;-71
2022/01/04 20:38:25;;;;;;;3.00;2.37;;;6.40;99.90;;;;;;5026974;28;20428;-72
2022/01/04 20:40:50;;;;;;;4.73;3.10;;;6.30;99.90;;;;;;5024510;28;20421;-72
2022/01/04 20:43:16;;;;;;;2.23;2.00;;;6.30;99.90;;;;;;5024824;28;20205;-71
2022/01/04 20:45:42;;;;;;;3.43;2.13;;;6.30;99.90;;;;;;5039545;28;20411;-72
2022/01/04 20:48:08;;;;;;;2.00;1.90;;;6.30;99.90;;;;;;5015212;28;20454;-72
2022/01/04 20:50:33;;;;;;;3.17;2.00;;;6.30;99.90;;;;;;5027178;28;20183;-74
2022/01/04 20:52:59;;;;;;;2.07;1.50;;;6.30;99.90;;;;;;5024095;28;20210;-72
2022/01/04 20:55:25;;;;;;;2.10;1.90;;;6.20;99.90;;;;;;5027160;28;20316;-71
2022/01/04 20:57:51;;;;;;;2.03;1.80;;;6.30;99.90;;;;;;5016740;28;20185;-72
2022/01/04 21:00:20;;;;;;;1.80;1.57;;;6.20;99.90;;;;;;5022642;28;20229;-72
2022/01/04 21:02:47;;;;;;;3.33;1.97;;;6.20;99.90;;;;;;5011556;28;20491;-71
2022/01/04 21:05:14;;;;;;;1.97;1.70;;;6.20;99.90;;;;;;5011766;28;20475;-72
2022/01/04 21:07:40;;;;;;;3.70;1.40;;;6.20;99.90;;;;;;5011327;28;20433;-72
2022/01/04 21:10:07;;;;;;;1.97;1.77;;;6.20;99.90;;;;;;5025607;28;20432;-71
2022/01/04 21:12:36;;;;;;;2.70;1.50;;;6.20;99.90;;;;;;5022069;28;20906;-72
2022/01/04 21:15:04;;;;;;;1.93;1.70;;;6.20;99.90;;;;;;5030566;28;21033;-72
2022/01/04 21:17:30;;;;;;;3.30;1.50;;;6.20;99.90;;;;;;5013695;28;20443;-71
2022/01/04 21:19:56;;;;;;;1.53;1.43;;;6.20;99.90;;;;;;5017921;28;20775;-72
2022/01/04 21:22:21;;;;;;;2.37;1.53;;;6.20;99.90;;;;;;5011481;28;20943;-71
2022/01/04 21:24:47;;;;;;;1.90;1.60;;;6.20;99.90;;;;;;5010583;28;20195;-72
2022/01/04 21:27:12;;;;;;;2.13;1.50;;;6.20;99.90;;;;;;5009518;28;20261;-71
2022/01/04 21:29:38;;;;;;;1.77;1.40;;;6.20;99.90;;;;;;5015118;28;20186;-72
2022/01/04 21:32:04;;;;;;;2.00;1.70;;;6.10;99.90;;;;;;5019499;28;20206;-71
2022/01/04 21:34:31;;;;;;;1.40;1.30;;;6.10;99.90;;;;;;5029674;28;20201;-72
2022/01/04 21:36:58;;;;;;;2.63;1.40;;;6.10;99.90;;;;;;5010113;28;20429;-71
2022/01/04 21:39:24;;;;;;;1.57;1.47;;;6.10;99.90;;;;;;5024860;28;20490;-72
2022/01/04 21:41:51;;;;;;;3.63;1.20;;;6.10;99.90;;;;;;5027175;28;20914;-72
2022/01/04 21:44:17;;;;;;;1.57;1.43;;;6.10;99.90;;;;;;5023585;28;20455;-71
2022/01/04 21:46:43;;;;;;;1.40;1.30;;;6.10;99.90;;;;;;5041038;28;20418;-71
2022/01/04 21:49:08;;;;;;;1.50;1.40;;;6.10;99.90;;;;;;5029661;28;20178;-71
2022/01/04 21:51:34;;;;;;;1.40;1.30;;;6.10;99.90;;;;;;5027872;28;20193;-71
2022/01/04 21:54:00;;;;;;;2.10;1.73;;;6.10;99.90;;;;;;5025343;28;20321;-72